createdAt,value
2022-12-17T00:02:41.149Z,12.55
2022-12-17T00:05:46.444Z,12.70
2022-12-17T00:08:53.954Z,14.93
2022-12-17T00:11:59.005Z,15.00
2022-12-17T00:15:04.851Z,14.18
2022-12-17T00:18:10.321Z,13.95
2022-12-17T00:21:18.316Z,12.70
2022-12-17T00:24:24.158Z,16.00
2022-12-17T00:27:29.336Z,13.08
2022-12-17T00:30:35.449Z,18.50
2022-12-17T00:33:42.281Z,12.27
2022-12-17T00:36:47.775Z,18.55
2022-12-17T00:39:59.001Z,12.58
2022-12-17T00:42:59.873Z,12.73
2022-12-17T00:46:05.351Z,12.20
2022-12-17T00:49:10.770Z,13.28
2022-12-17T00:52:16.606Z,13.53
2022-12-17T00:55:22.745Z,15.43
2022-12-17T00:58:28.042Z,12.47
2022-12-17T01:01:23.260Z,12.10
2022-12-17T01:04:28.896Z,15.60
2022-12-17T01:07:34.400Z,11.63
2022-12-17T01:10:40.254Z,11.63
2022-12-17T01:13:46.458Z,11.43
2022-12-17T01:16:52.438Z,9.95
2022-12-17T01:19:59.289Z,12.80
2022-12-17T01:23:05.077Z,11.12
2022-12-17T01:26:20.554Z,14.45
2022-12-17T01:29:25.030Z,11.85
2022-12-17T01:32:14.099Z,14.47
2022-12-17T01:35:19.276Z,13.03
2022-12-17T01:38:31.904Z,9.65
2022-12-17T01:41:37.902Z,8.58
2022-12-17T01:45:05.421Z,9.65
2022-12-17T01:48:13.583Z,7.37
2022-12-17T01:51:19.031Z,7.85
2022-12-17T01:54:24.724Z,8.10
2022-12-17T01:57:30.442Z,10.15
2022-12-17T02:00:37.419Z,9.18
2022-12-17T02:06:53.759Z,5.58
2022-12-17T02:10:05.167Z,5.00
2022-12-17T02:13:13.605Z,5.80
2022-12-17T02:16:28.385Z,6.58
2022-12-17T02:19:39.714Z,5.53
2022-12-17T02:22:54.245Z,7.22
2022-12-17T02:26:02.607Z,4.42
2022-12-17T02:29:09.824Z,5.28
2022-12-17T02:32:15.680Z,4.42
2022-12-17T02:35:23.065Z,4.62
2022-12-17T02:38:40.771Z,3.83
2022-12-17T02:41:57.740Z,5.37
2022-12-17T02:45:04.771Z,3.25
2022-12-17T02:48:11.528Z,7.08
2022-12-17T02:51:18.384Z,4.15
2022-12-17T02:57:28.919Z,3.87
2022-12-17T03:00:34.943Z,3.40
2022-12-17T03:03:42.905Z,4.33
2022-12-17T03:09:53.318Z,5.22
2022-12-17T03:16:03.585Z,6.17
2022-12-17T03:19:09.691Z,8.50
2022-12-17T03:22:14.789Z,3.83
2022-12-17T03:25:20.198Z,5.08
2022-12-17T03:28:27.183Z,5.83
2022-12-17T03:31:32.629Z,4.62
2022-12-17T03:34:38.126Z,5.12
2022-12-17T03:37:43.415Z,6.00
2022-12-17T03:40:49.173Z,5.47
2022-12-17T03:43:54.905Z,5.15
2022-12-17T03:47:00.705Z,5.20
2022-12-17T03:50:06.314Z,3.72
2022-12-17T03:53:15.087Z,3.85
2022-12-17T03:56:22.225Z,6.20
2022-12-17T03:59:27.695Z,4.60
2022-12-17T04:02:32.870Z,6.25
2022-12-17T04:05:37.621Z,4.60
2022-12-17T04:08:42.839Z,5.60
2022-12-17T04:11:48.110Z,4.72
2022-12-17T04:14:54.024Z,4.35
2022-12-17T04:17:59.662Z,6.42
2022-12-17T04:21:05.026Z,5.95
2022-12-17T04:24:10.374Z,3.92
2022-12-17T04:27:16.025Z,4.85
2022-12-17T04:30:14.147Z,3.35
2022-12-17T04:33:19.645Z,4.50
2022-12-17T04:36:25.300Z,6.03
2022-12-17T04:39:31.069Z,3.17
2022-12-17T04:42:36.547Z,4.25
2022-12-17T04:45:45.005Z,3.25
2022-12-17T04:48:50.446Z,5.10
2022-12-17T04:51:56.065Z,6.00
2022-12-17T04:55:01.707Z,2.37
2022-12-17T04:58:07.167Z,4.70
2022-12-17T05:01:13.441Z,3.80
2022-12-17T05:04:18.882Z,7.30
2022-12-17T05:07:24.420Z,4.67
2022-12-17T05:10:29.853Z,6.67
2022-12-17T05:13:37.537Z,4.80
2022-12-17T05:16:42.647Z,4.08
2022-12-17T05:19:48.100Z,13.58
2022-12-17T05:22:54.328Z,6.83
2022-12-17T05:25:59.720Z,7.00
2022-12-17T05:29:04.765Z,8.35
2022-12-17T05:32:10.759Z,7.17
2022-12-17T05:35:16.564Z,6.83
2022-12-17T05:38:23.778Z,7.28
2022-12-17T05:41:29.355Z,5.45
2022-12-17T05:44:34.647Z,9.38
2022-12-17T05:47:39.426Z,4.92
2022-12-17T05:50:48.537Z,5.83
2022-12-17T05:53:54.488Z,4.50
2022-12-17T05:56:59.977Z,8.25
2022-12-17T06:00:05.606Z,8.33
2022-12-17T06:03:22.930Z,8.83
2022-12-17T06:06:28.316Z,8.45
2022-12-17T06:09:33.570Z,6.78
2022-12-17T06:12:39.118Z,14.25
2022-12-17T06:15:44.662Z,9.78
2022-12-17T06:18:50.006Z,10.43
2022-12-17T06:21:55.468Z,8.35
2022-12-17T06:25:01.113Z,6.37
2022-12-17T06:28:06.274Z,7.22
2022-12-17T06:31:13.042Z,9.00
2022-12-17T06:37:22.907Z,10.78
2022-12-17T06:40:29.268Z,10.72
2022-12-17T06:43:35.386Z,6.25
2022-12-17T06:46:42.008Z,8.15
2022-12-17T06:49:47.448Z,8.43
2022-12-17T06:52:53.068Z,10.30
2022-12-17T06:55:58.724Z,9.88
2022-12-17T06:59:04.388Z,9.68
2022-12-17T07:02:09.887Z,11.55
2022-12-17T07:05:15.078Z,11.12
2022-12-17T07:08:20.677Z,12.90
2022-12-17T07:11:26.192Z,12.68
2022-12-17T07:14:31.280Z,14.58
2022-12-17T07:17:37.271Z,14.47
2022-12-17T07:20:42.439Z,24.07
2022-12-17T07:23:47.877Z,30.48
2022-12-17T07:26:53.257Z,30.88
2022-12-17T07:29:59.588Z,36.20
2022-12-17T07:33:04.816Z,28.20
2022-12-17T07:36:12.420Z,31.68
2022-12-17T07:39:17.742Z,31.15
2022-12-17T07:42:23.222Z,36.03
2022-12-17T07:45:28.761Z,35.33
2022-12-17T07:48:34.620Z,35.15
2022-12-17T07:51:40.048Z,40.75
2022-12-17T07:54:45.419Z,36.73
2022-12-17T07:57:50.653Z,37.90
2022-12-17T08:00:56.091Z,51.37
2022-12-17T08:04:01.548Z,44.70
2022-12-17T08:07:11.069Z,42.90
2022-12-17T08:10:15.271Z,46.50
2022-12-17T08:13:23.026Z,36.45
2022-12-17T08:16:28.363Z,40.12
2022-12-17T08:19:33.818Z,35.92
2022-12-17T08:22:38.587Z,60.15
2022-12-17T08:25:44.055Z,42.38
2022-12-17T08:28:50.868Z,46.73
2022-12-17T08:31:56.564Z,35.95
2022-12-17T08:35:02.483Z,34.88
2022-12-17T08:38:07.557Z,41.95
2022-12-17T08:41:12.943Z,40.30
2022-12-17T08:44:18.637Z,50.03
2022-12-17T08:47:24.424Z,42.83
2022-12-17T08:50:29.771Z,44.10
2022-12-17T08:53:35.393Z,44.50
2022-12-17T08:56:43.827Z,50.85
2022-12-17T08:59:49.553Z,42.03
2022-12-17T09:02:55.147Z,41.90
2022-12-17T09:06:01.098Z,47.13
2022-12-17T09:09:06.587Z,45.88
2022-12-17T09:12:13.029Z,49.38
2022-12-17T09:15:18.300Z,56.83
2022-12-17T09:18:23.700Z,44.63
2022-12-17T09:21:34.230Z,48.30
2022-12-17T09:24:39.710Z,49.27
2022-12-17T09:27:45.658Z,44.63
2022-12-17T09:30:53.195Z,44.03
2022-12-17T09:33:58.120Z,48.52
2022-12-17T09:37:04.431Z,43.05
2022-12-17T09:40:09.660Z,39.83
2022-12-17T09:43:21.054Z,50.08
2022-12-17T09:46:32.062Z,46.95
2022-12-17T09:49:43.410Z,82.17
2022-12-17T09:52:52.388Z,49.18
2022-12-17T09:56:06.275Z,47.88
2022-12-17T09:59:14.240Z,44.25
2022-12-17T10:02:23.306Z,45.90
2022-12-17T10:05:41.263Z,70.05
2022-12-17T10:11:52.603Z,46.42
2022-12-17T10:14:57.962Z,41.53
2022-12-17T10:18:02.034Z,41.70
2022-12-17T10:21:17.205Z,47.67
2022-12-17T10:24:27.538Z,43.75
2022-12-17T10:27:36.393Z,38.25
2022-12-17T10:30:43.083Z,40.08
2022-12-17T10:33:49.407Z,44.35
2022-12-17T10:36:54.617Z,39.42
2022-12-17T10:40:01.204Z,47.80
2022-12-17T10:43:04.918Z,44.23
2022-12-17T10:46:17.232Z,39.27
2022-12-17T10:49:31.074Z,47.23
2022-12-17T10:52:50.594Z,45.92
2022-12-17T10:55:56.193Z,42.33
2022-12-17T10:59:07.123Z,40.65
2022-12-17T11:02:15.867Z,44.20
2022-12-17T11:05:24.516Z,50.80
2022-12-17T11:08:35.196Z,41.80
2022-12-17T11:11:44.027Z,43.42
2022-12-17T11:14:52.627Z,42.60
2022-12-17T11:18:00.570Z,43.83
2022-12-17T11:21:09.090Z,40.83
2022-12-17T11:24:21.997Z,39.25
2022-12-17T11:27:26.643Z,43.87
2022-12-17T11:30:33.804Z,39.25
2022-12-17T11:33:42.220Z,44.00
2022-12-17T11:36:50.582Z,43.73
2022-12-17T11:40:08.236Z,39.15
2022-12-17T11:43:31.893Z,36.05
2022-12-17T11:46:55.660Z,36.17
2022-12-17T11:50:19.010Z,35.05
2022-12-17T11:53:59.724Z,40.63
2022-12-17T11:57:08.463Z,46.02
2022-12-17T12:00:19.727Z,38.35
2022-12-17T12:03:40.558Z,41.60
2022-12-17T12:07:01.234Z,43.20
2022-12-17T12:10:18.771Z,40.80
2022-12-17T12:13:30.419Z,39.53
2022-12-17T12:16:43.914Z,39.48
2022-12-17T12:19:57.459Z,37.83
2022-12-17T12:23:08.680Z,41.77
2022-12-17T12:26:16.988Z,39.38
2022-12-17T12:29:52.800Z,42.58
2022-12-17T12:33:04.297Z,38.35
2022-12-17T12:36:09.179Z,41.37
2022-12-17T12:39:16.304Z,38.30
2022-12-17T12:42:27.788Z,40.25
2022-12-17T12:49:32.894Z,41.53
2022-12-17T12:52:41.470Z,45.70
2022-12-17T12:55:57.794Z,42.17
2022-12-17T12:59:05.007Z,34.85
2022-12-17T13:02:10.121Z,34.40
2022-12-17T13:05:15.867Z,40.55
2022-12-17T13:08:06.503Z,41.65
2022-12-17T13:10:55.536Z,45.00
2022-12-17T13:13:47.242Z,43.52
2022-12-17T13:16:43.790Z,46.13
2022-12-17T13:19:39.777Z,46.05
2022-12-17T13:22:34.543Z,40.15
2022-12-17T13:25:26.426Z,46.53
2022-12-17T13:28:29.064Z,43.50
2022-12-17T13:31:19.608Z,47.13
2022-12-17T13:34:19.158Z,49.23
2022-12-17T13:37:15.880Z,47.00
2022-12-17T13:40:37.421Z,51.50
2022-12-17T13:43:27.658Z,52.03
2022-12-17T13:46:47.602Z,47.70
2022-12-17T13:49:34.423Z,48.90
2022-12-17T13:52:27.018Z,46.85
2022-12-17T13:55:29.199Z,49.63
2022-12-17T13:58:31.157Z,48.23
2022-12-17T14:01:20.239Z,57.20
2022-12-17T14:04:07.843Z,55.92
2022-12-17T14:07:01.834Z,57.30
2022-12-17T14:09:49.962Z,50.88
2022-12-17T14:12:37.164Z,43.55
2022-12-17T14:15:28.273Z,48.92
2022-12-17T14:18:18.566Z,46.53
2022-12-17T14:21:06.994Z,50.25
2022-12-17T14:23:55.601Z,52.80
2022-12-17T14:26:52.449Z,45.28
2022-12-17T14:29:42.611Z,43.42
2022-12-17T14:32:35.991Z,86.92
2022-12-17T14:35:31.934Z,55.90
2022-12-17T14:38:37.066Z,52.08
2022-12-17T14:41:31.768Z,64.85
2022-12-17T14:44:24.864Z,57.48
2022-12-17T14:47:15.382Z,49.48
2022-12-17T14:50:14.815Z,59.53
2022-12-17T14:53:06.976Z,54.35
2022-12-17T14:55:59.605Z,50.12
2022-12-17T14:58:47.254Z,51.40
2022-12-17T15:01:35.285Z,51.75
2022-12-17T15:04:23.129Z,52.23
2022-12-17T15:07:17.840Z,48.00
2022-12-17T15:10:05.778Z,56.35
2022-12-17T15:12:54.592Z,52.43
2022-12-17T15:15:42.763Z,54.58
2022-12-17T15:18:30.765Z,58.08
2022-12-17T15:21:19.249Z,50.40
2022-12-17T15:24:09.898Z,49.05
2022-12-17T15:27:00.250Z,52.45
2022-12-17T15:29:50.439Z,57.15
2022-12-17T15:32:38.470Z,47.30
2022-12-17T15:35:26.028Z,50.98
2022-12-17T15:38:13.862Z,55.30
2022-12-17T15:41:04.580Z,60.08
2022-12-17T15:43:54.459Z,63.42
2022-12-17T15:46:41.964Z,56.37
2022-12-17T15:49:29.311Z,55.40
2022-12-17T15:52:17.591Z,57.03
2022-12-17T15:55:05.120Z,53.13
2022-12-17T15:57:55.545Z,68.80
2022-12-17T16:00:42.865Z,72.50
2022-12-17T16:03:30.346Z,53.00
2022-12-17T16:06:17.898Z,58.83
2022-12-17T16:09:05.126Z,60.00
2022-12-17T16:11:55.792Z,60.15
2022-12-17T16:14:43.294Z,70.28
2022-12-17T16:17:30.895Z,70.05
2022-12-17T16:20:18.456Z,64.37
2022-12-17T16:23:10.276Z,82.53
2022-12-17T16:26:02.318Z,68.50
2022-12-17T16:28:49.904Z,61.92
2022-12-17T16:31:37.375Z,70.20
2022-12-17T16:34:24.705Z,73.17
2022-12-17T16:37:12.506Z,69.92
2022-12-17T16:40:01.774Z,58.13
2022-12-17T16:42:48.817Z,71.95
2022-12-17T16:45:35.981Z,69.07
2022-12-17T16:48:23.869Z,59.42
2022-12-17T16:51:24.450Z,59.40
2022-12-17T16:54:16.169Z,61.15
2022-12-17T16:57:03.799Z,66.75
2022-12-17T16:59:52.156Z,64.90
2022-12-17T17:02:39.983Z,69.55
2022-12-17T17:05:27.980Z,68.92
2022-12-17T17:08:16.376Z,65.37
2022-12-17T17:11:09.813Z,68.78
2022-12-17T17:13:57.961Z,63.28
2022-12-17T17:16:45.591Z,61.20
2022-12-17T17:19:32.885Z,67.97
2022-12-17T17:22:20.468Z,76.22
2022-12-17T17:25:08.219Z,66.17
2022-12-17T17:27:55.947Z,74.05
2022-12-17T17:30:43.128Z,80.90
2022-12-17T17:33:33.709Z,82.35
2022-12-17T17:36:23.977Z,78.83
2022-12-17T17:39:11.734Z,81.30
2022-12-17T17:41:59.351Z,84.73
2022-12-17T17:44:47.095Z,75.90
2022-12-17T17:47:34.604Z,71.07
2022-12-17T17:50:23.889Z,89.05
2022-12-17T17:53:11.291Z,97.15
2022-12-17T17:56:04.191Z,76.40
2022-12-17T17:58:54.022Z,86.97
2022-12-17T18:01:44.377Z,88.75
2022-12-17T18:04:32.203Z,78.40
2022-12-17T18:07:27.943Z,82.33
2022-12-17T18:10:09.667Z,80.28
2022-12-17T18:13:14.930Z,83.10
2022-12-17T18:16:03.005Z,80.83
2022-12-17T18:18:50.311Z,86.37
2022-12-17T18:21:38.314Z,96.95
2022-12-17T18:24:25.810Z,96.02
2022-12-17T18:27:12.899Z,110.28
2022-12-17T18:30:02.265Z,87.05
2022-12-17T18:32:49.587Z,112.80
2022-12-17T18:35:38.013Z,100.38
2022-12-17T18:38:25.268Z,101.72
2022-12-17T18:41:29.683Z,85.45
2022-12-17T18:44:17.710Z,91.60
2022-12-17T18:47:05.004Z,87.08
2022-12-17T18:49:53.966Z,90.38
2022-12-17T18:52:41.131Z,107.47
2022-12-17T18:55:28.557Z,98.00
2022-12-17T18:58:16.090Z,91.15
2022-12-17T19:01:03.704Z,92.33
2022-12-17T19:03:54.753Z,84.55
2022-12-17T19:06:43.521Z,80.25
2022-12-17T19:09:36.442Z,82.12
2022-12-17T19:12:25.270Z,85.77
2022-12-17T19:15:12.708Z,72.40
2022-12-17T19:17:59.820Z,75.42
2022-12-17T19:20:46.982Z,93.75
2022-12-17T19:23:34.838Z,81.92
2022-12-17T19:26:23.275Z,94.42
2022-12-17T19:29:13.108Z,99.03
2022-12-17T19:32:00.612Z,79.85
2022-12-17T19:34:48.010Z,89.37
2022-12-17T19:37:35.306Z,93.33
2022-12-17T19:40:25.681Z,93.47
2022-12-17T19:43:12.868Z,120.53
2022-12-17T19:46:09.097Z,106.67
2022-12-17T19:48:57.534Z,132.97
2022-12-17T19:51:45.606Z,112.17
2022-12-17T19:54:33.117Z,135.75
2022-12-17T19:57:25.280Z,96.22
2022-12-17T20:00:13.954Z,98.40
2022-12-17T20:03:03.946Z,65.72
2022-12-17T20:05:52.415Z,73.15
2022-12-17T20:08:43.070Z,71.40
2022-12-17T20:11:34.283Z,85.17
2022-12-17T20:14:28.130Z,74.00
2022-12-17T20:17:15.714Z,67.35
2022-12-17T20:20:02.859Z,65.83
2022-12-17T20:22:50.358Z,69.07
2022-12-17T20:25:37.257Z,77.60
2022-12-17T20:28:24.864Z,76.35
2022-12-17T20:31:13.152Z,68.52
2022-12-17T20:34:03.473Z,82.33
2022-12-17T20:36:51.387Z,77.60
2022-12-17T20:39:38.921Z,77.35
2022-12-17T20:42:26.126Z,75.10
2022-12-17T20:45:13.505Z,79.80
2022-12-17T20:48:01.041Z,75.22
2022-12-17T20:50:48.773Z,77.17
2022-12-17T20:53:36.374Z,76.55
2022-12-17T20:56:26.888Z,68.50
2022-12-17T20:59:17.012Z,76.75
2022-12-17T21:02:04.560Z,76.10
2022-12-17T21:04:51.976Z,76.55
2022-12-17T21:07:39.405Z,76.40
2022-12-17T21:10:26.877Z,82.08
2022-12-17T21:13:29.409Z,80.42
2022-12-17T21:16:22.820Z,80.62
2022-12-17T21:19:13.380Z,75.65
2022-12-17T21:22:00.671Z,79.45
2022-12-17T21:24:47.930Z,75.30
2022-12-17T21:27:36.668Z,84.42
2022-12-17T21:30:23.897Z,86.10
2022-12-17T21:33:11.138Z,76.17
2022-12-17T21:36:07.501Z,89.97
2022-12-17T21:38:53.453Z,71.40
2022-12-17T21:41:45.035Z,81.57
2022-12-17T21:44:32.180Z,75.40
2022-12-17T21:47:19.507Z,79.32
2022-12-17T21:50:07.048Z,74.60
2022-12-17T21:52:54.490Z,73.02
2022-12-17T21:55:42.228Z,72.30
2022-12-17T21:58:29.871Z,68.40
2022-12-17T22:01:24.970Z,73.72
2022-12-17T22:04:12.774Z,67.37
2022-12-17T22:07:06.920Z,66.30
2022-12-17T22:10:10.701Z,68.80
2022-12-17T22:12:55.623Z,65.25
2022-12-17T22:15:44.412Z,63.52
2022-12-17T22:18:31.978Z,68.47
2022-12-17T22:21:20.177Z,67.12
2022-12-17T22:24:08.374Z,63.05
2022-12-17T22:26:57.350Z,65.80
2022-12-17T22:30:02.234Z,61.28
2022-12-17T22:33:03.550Z,68.40
2022-12-17T22:37:22.334Z,71.92
2022-12-17T22:41:11.172Z,71.10
2022-12-17T22:44:37.050Z,66.20
2022-12-17T22:44:51.665Z,62.10
2022-12-17T22:47:25.274Z,61.00
2022-12-17T22:50:12.797Z,64.55
2022-12-17T22:53:00.675Z,56.83
2022-12-17T22:55:48.594Z,54.90
2022-12-17T22:58:37.575Z,58.98
2022-12-17T23:01:25.226Z,55.48
2022-12-17T23:04:15.532Z,52.53
2022-12-17T23:07:03.117Z,51.70
2022-12-17T23:09:50.536Z,57.50
2022-12-17T23:12:54.001Z,52.00
2022-12-17T23:15:41.462Z,49.38
2022-12-17T23:18:29.106Z,58.38
2022-12-17T23:21:19.614Z,47.85
2022-12-17T23:24:07.121Z,49.10
2022-12-17T23:26:54.552Z,58.08
2022-12-17T23:29:42.227Z,46.70
2022-12-17T23:32:29.390Z,50.55
2022-12-17T23:35:16.854Z,51.10
2022-12-17T23:38:04.021Z,47.08
2022-12-17T23:40:51.662Z,54.70
2022-12-17T23:43:40.433Z,49.45
2022-12-17T23:46:30.557Z,45.45
2022-12-17T23:49:17.739Z,42.53
2022-12-17T23:52:05.392Z,53.92
2022-12-17T23:54:53.005Z,48.23
2022-12-17T23:57:40.295Z,45.03
